createdAt,value
2023-02-02T00:00:12.575Z,712.00
2023-02-02T00:01:12.697Z,713.00
2023-02-02T00:02:12.654Z,711.00
2023-02-02T00:03:12.689Z,709.00
2023-02-02T00:04:12.690Z,708.00
2023-02-02T00:05:12.712Z,710.00
2023-02-02T00:06:12.742Z,712.00
2023-02-02T00:07:12.754Z,711.00
2023-02-02T00:08:12.785Z,712.00
2023-02-02T00:09:12.835Z,712.00
2023-02-02T00:10:12.842Z,711.00
2023-02-02T00:11:13.509Z,711.00
2023-02-02T00:12:12.882Z,712.00
2023-02-02T00:13:12.952Z,712.00
2023-02-02T00:14:12.976Z,714.00
2023-02-02T00:15:12.974Z,714.00
2023-02-02T00:16:13.036Z,711.00
2023-02-02T00:17:13.018Z,713.00
2023-02-02T00:18:13.032Z,714.00
2023-02-02T00:19:13.061Z,710.00
2023-02-02T00:20:13.092Z,710.00
2023-02-02T00:25:13.986Z,711.00
2023-02-02T00:31:13.384Z,703.00
2023-02-02T00:32:13.343Z,702.00
2023-02-02T00:33:13.397Z,700.00
2023-02-02T00:34:13.396Z,699.00
2023-02-02T00:35:13.508Z,697.00
2023-02-02T00:36:13.439Z,696.00
2023-02-02T00:37:13.492Z,697.00
2023-02-02T00:38:13.535Z,698.00
2023-02-02T00:39:13.536Z,698.00
2023-02-02T00:40:13.585Z,699.00
2023-02-02T00:41:13.611Z,699.00
2023-02-02T00:42:13.667Z,700.00
2023-02-02T00:43:13.662Z,696.00
2023-02-02T00:44:13.691Z,694.00
2023-02-02T00:45:13.716Z,697.00
2023-02-02T00:46:13.739Z,697.00
2023-02-02T00:47:13.761Z,697.00
2023-02-02T00:48:13.812Z,695.00
2023-02-02T00:49:13.825Z,695.00
2023-02-02T00:50:13.870Z,696.00
2023-02-02T00:51:13.891Z,697.00
2023-02-02T00:52:13.894Z,700.00
2023-02-02T00:53:13.941Z,702.00
2023-02-02T00:54:13.982Z,701.00
2023-02-02T00:55:14.023Z,700.00
2023-02-02T00:56:14.034Z,698.00
2023-02-02T00:57:14.079Z,701.00
2023-02-02T00:58:14.118Z,700.00
2023-02-02T00:59:14.116Z,698.00
2023-02-02T01:00:14.157Z,695.00
2023-02-02T01:01:14.235Z,691.00
2023-02-02T01:02:14.264Z,693.00
2023-02-02T01:03:14.265Z,694.00
2023-02-02T01:04:14.343Z,695.00
2023-02-02T01:05:14.362Z,695.00
2023-02-02T01:06:14.347Z,693.00
2023-02-02T01:07:14.406Z,693.00
2023-02-02T01:08:14.426Z,693.00
2023-02-02T01:09:14.483Z,694.00
2023-02-02T01:10:14.508Z,695.00
2023-02-02T01:11:14.520Z,694.00
2023-02-02T01:12:14.548Z,694.00
2023-02-02T01:13:14.580Z,693.00
2023-02-02T01:14:14.598Z,691.00
2023-02-02T01:15:14.652Z,689.00
2023-02-02T01:16:14.715Z,689.00
2023-02-02T01:17:14.677Z,687.00
2023-02-02T01:18:14.732Z,686.00
2023-02-02T01:19:14.796Z,688.00
2023-02-02T01:20:14.785Z,687.00
2023-02-02T01:21:14.824Z,687.00
2023-02-02T01:22:14.845Z,687.00
2023-02-02T01:23:14.851Z,684.00
2023-02-02T01:24:14.901Z,685.00
2023-02-02T01:25:14.926Z,686.00
2023-02-02T01:26:14.954Z,688.00
2023-02-02T01:27:15.001Z,688.00
2023-02-02T01:28:15.031Z,686.00
2023-02-02T01:29:15.070Z,685.00
2023-02-02T01:30:15.087Z,686.00
2023-02-02T01:31:15.168Z,687.00
2023-02-02T01:32:15.139Z,687.00
2023-02-02T01:33:15.162Z,684.00
2023-02-02T01:34:15.193Z,682.00
2023-02-02T01:35:15.225Z,683.00
2023-02-02T01:36:15.274Z,683.00
2023-02-02T01:37:15.275Z,682.00
2023-02-02T01:38:15.298Z,681.00
2023-02-02T01:39:15.319Z,681.00
2023-02-02T01:40:15.365Z,681.00
2023-02-02T01:41:15.389Z,682.00
2023-02-02T01:42:15.434Z,682.00
2023-02-02T01:43:15.440Z,681.00
2023-02-02T01:44:15.504Z,683.00
2023-02-02T01:45:15.495Z,684.00
2023-02-02T01:46:15.608Z,686.00
2023-02-02T01:47:15.534Z,686.00
2023-02-02T01:48:15.563Z,685.00
2023-02-02T01:49:15.543Z,684.00
2023-02-02T01:50:15.551Z,682.00
2023-02-02T01:51:15.590Z,682.00
2023-02-02T01:52:15.599Z,680.00
2023-02-02T01:53:15.599Z,681.00
2023-02-02T01:54:15.609Z,679.00
2023-02-02T01:55:15.584Z,680.00
2023-02-02T01:56:15.567Z,681.00
2023-02-02T01:57:15.564Z,681.00
2023-02-02T01:58:15.588Z,682.00
2023-02-02T01:59:15.586Z,683.00
2023-02-02T02:00:15.555Z,683.00
2023-02-02T02:01:15.606Z,684.00
2023-02-02T02:02:15.612Z,683.00
2023-02-02T02:03:15.637Z,682.00
2023-02-02T02:04:15.658Z,681.00
2023-02-02T02:05:15.655Z,680.00
2023-02-02T02:06:15.672Z,680.00
2023-02-02T02:07:15.698Z,679.00
2023-02-02T02:08:15.753Z,678.00
2023-02-02T02:09:15.751Z,679.00
2023-02-02T02:10:15.831Z,679.00
2023-02-02T02:11:15.823Z,679.00
2023-02-02T02:12:15.914Z,678.00
2023-02-02T02:13:15.971Z,678.00
2023-02-02T02:14:16.029Z,677.00
2023-02-02T02:15:16.057Z,675.00
2023-02-02T02:16:16.177Z,676.00
2023-02-02T02:17:16.174Z,676.00
2023-02-02T02:18:16.290Z,674.00
2023-02-02T02:19:16.293Z,672.00
2023-02-02T02:20:16.332Z,674.00
2023-02-02T02:21:16.398Z,675.00
2023-02-02T02:22:16.487Z,675.00
2023-02-02T02:23:16.528Z,677.00
2023-02-02T02:24:16.601Z,676.00
2023-02-02T02:25:16.689Z,676.00
2023-02-02T02:26:16.939Z,677.00
2023-02-02T02:27:16.791Z,674.00
2023-02-02T02:28:16.870Z,674.00
2023-02-02T02:29:16.901Z,674.00
2023-02-02T02:30:16.956Z,673.00
2023-02-02T02:31:17.252Z,671.00
2023-02-02T02:32:17.102Z,671.00
2023-02-02T02:33:17.180Z,670.00
2023-02-02T02:34:17.206Z,672.00
2023-02-02T02:35:17.272Z,672.00
2023-02-02T02:36:17.334Z,672.00
2023-02-02T02:37:17.421Z,671.00
2023-02-02T02:38:17.463Z,672.00
2023-02-02T02:39:17.498Z,674.00
2023-02-02T02:40:17.554Z,674.00
2023-02-02T02:41:17.611Z,676.00
2023-02-02T02:42:17.688Z,676.00
2023-02-02T02:43:17.750Z,673.00
2023-02-02T02:44:17.784Z,673.00
2023-02-02T02:45:17.902Z,671.00
2023-02-02T02:46:17.928Z,673.00
2023-02-02T02:47:17.975Z,670.00
2023-02-02T02:48:17.996Z,672.00
2023-02-02T02:49:18.052Z,674.00
2023-02-02T02:50:18.082Z,676.00
2023-02-02T02:51:18.118Z,678.00
2023-02-02T02:52:18.165Z,677.00
2023-02-02T02:53:18.219Z,677.00
2023-02-02T02:54:18.272Z,676.00
2023-02-02T02:55:18.312Z,676.00
2023-02-02T02:56:18.325Z,676.00
2023-02-02T02:57:18.435Z,674.00
2023-02-02T02:58:18.504Z,672.00
2023-02-02T02:59:18.511Z,669.00
2023-02-02T03:00:18.552Z,670.00
2023-02-02T03:01:18.633Z,667.00
2023-02-02T03:02:18.652Z,667.00
2023-02-02T03:03:18.662Z,668.00
2023-02-02T03:04:18.677Z,666.00
2023-02-02T03:05:18.740Z,666.00
2023-02-02T03:06:18.773Z,668.00
2023-02-02T03:07:18.803Z,670.00
2023-02-02T03:08:18.883Z,674.00
2023-02-02T03:09:18.921Z,676.00
2023-02-02T03:10:18.933Z,675.00
2023-02-02T03:11:19.011Z,676.00
2023-02-02T03:12:19.054Z,676.00
2023-02-02T03:13:19.095Z,675.00
2023-02-02T03:14:19.114Z,676.00
2023-02-02T03:15:19.148Z,676.00
2023-02-02T03:16:19.190Z,675.00
2023-02-02T03:17:19.243Z,676.00
2023-02-02T03:18:19.265Z,678.00
2023-02-02T03:19:19.303Z,678.00
2023-02-02T03:20:19.311Z,676.00
2023-02-02T03:21:19.378Z,678.00
2023-02-02T03:22:19.386Z,679.00
2023-02-02T03:23:19.517Z,674.00
2023-02-02T03:24:19.531Z,671.00
2023-02-02T03:25:19.538Z,673.00
2023-02-02T03:26:19.629Z,673.00
2023-02-02T03:27:19.567Z,674.00
2023-02-02T03:28:19.626Z,675.00
2023-02-02T03:29:19.633Z,676.00
2023-02-02T03:30:19.730Z,673.00
2023-02-02T03:31:19.721Z,670.00
2023-02-02T03:32:19.764Z,670.00
2023-02-02T03:33:19.756Z,671.00
2023-02-02T03:34:19.780Z,674.00
2023-02-02T03:35:19.821Z,673.00
2023-02-02T03:36:19.847Z,674.00
2023-02-02T03:37:19.890Z,674.00
2023-02-02T03:38:19.916Z,676.00
2023-02-02T03:39:19.898Z,678.00
2023-02-02T03:40:19.941Z,677.00
2023-02-02T03:41:19.969Z,677.00
2023-02-02T03:42:20.036Z,677.00
2023-02-02T03:43:20.043Z,675.00
2023-02-02T03:44:20.045Z,674.00
2023-02-02T03:45:20.094Z,673.00
2023-02-02T03:46:20.153Z,675.00
2023-02-02T03:47:20.128Z,674.00
2023-02-02T03:48:20.204Z,674.00
2023-02-02T03:49:20.211Z,676.00
2023-02-02T03:50:20.240Z,674.00
2023-02-02T03:51:20.294Z,675.00
2023-02-02T03:52:20.303Z,674.00
2023-02-02T03:53:20.317Z,674.00
2023-02-02T03:54:20.309Z,673.00
2023-02-02T03:55:20.391Z,672.00
2023-02-02T03:56:20.363Z,669.00
2023-02-02T03:57:20.401Z,668.00
2023-02-02T03:58:20.451Z,671.00
2023-02-02T03:59:20.451Z,672.00
2023-02-02T04:00:20.466Z,671.00
2023-02-02T04:01:20.557Z,670.00
2023-02-02T04:02:20.517Z,668.00
2023-02-02T04:03:20.571Z,668.00
2023-02-02T04:04:20.563Z,667.00
2023-02-02T04:05:20.562Z,664.00
2023-02-02T04:06:20.595Z,665.00
2023-02-02T04:07:20.630Z,662.00
2023-02-02T04:08:20.645Z,663.00
2023-02-02T04:09:20.680Z,663.00
2023-02-02T04:10:20.676Z,662.00
2023-02-02T04:21:20.962Z,667.00
2023-02-02T04:22:20.967Z,666.00
2023-02-02T04:23:20.987Z,664.00
2023-02-02T04:24:20.987Z,664.00
2023-02-02T04:25:21.053Z,665.00
2023-02-02T04:26:21.104Z,664.00
2023-02-02T04:27:21.056Z,665.00
2023-02-02T04:28:21.062Z,665.00
2023-02-02T04:29:21.092Z,663.00
2023-02-02T04:30:21.105Z,664.00
2023-02-02T04:31:21.119Z,664.00
2023-02-02T04:32:21.134Z,663.00
2023-02-02T04:33:21.142Z,664.00
2023-02-02T04:34:21.132Z,662.00
2023-02-02T04:35:21.160Z,659.00
2023-02-02T04:36:21.180Z,661.00
2023-02-02T04:37:21.161Z,662.00
2023-02-02T04:38:21.231Z,661.00
2023-02-02T04:39:21.186Z,661.00
2023-02-02T04:40:21.196Z,663.00
2023-02-02T04:41:21.243Z,664.00
2023-02-02T04:42:21.227Z,661.00
2023-02-02T04:43:21.260Z,659.00
2023-02-02T04:44:21.299Z,657.00
2023-02-02T04:45:21.337Z,659.00
2023-02-02T04:46:21.347Z,660.00
2023-02-02T04:47:21.376Z,662.00
2023-02-02T04:48:21.380Z,663.00
2023-02-02T04:49:21.415Z,663.00
2023-02-02T04:50:21.430Z,663.00
2023-02-02T04:51:21.474Z,664.00
2023-02-02T04:52:21.472Z,664.00
2023-02-02T04:53:21.549Z,662.00
2023-02-02T04:54:21.547Z,662.00
2023-02-02T04:55:21.574Z,661.00
2023-02-02T04:56:21.611Z,660.00
2023-02-02T04:57:21.619Z,659.00
2023-02-02T04:58:21.662Z,658.00
2023-02-02T04:59:21.640Z,659.00
2023-02-02T05:00:21.707Z,660.00
2023-02-02T05:01:21.749Z,658.00
2023-02-02T05:02:21.733Z,657.00
2023-02-02T05:03:21.786Z,655.00
2023-02-02T05:04:21.798Z,657.00
2023-02-02T05:05:21.940Z,658.00
2023-02-02T05:06:21.838Z,657.00
2023-02-02T05:07:21.871Z,658.00
2023-02-02T05:08:21.943Z,657.00
2023-02-02T05:09:21.891Z,656.00
2023-02-02T05:10:21.972Z,656.00
2023-02-02T05:11:22.002Z,656.00
2023-02-02T05:12:22.033Z,656.00
2023-02-02T05:13:22.077Z,655.00
2023-02-02T05:14:22.039Z,655.00
2023-02-02T05:15:22.309Z,654.00
2023-02-02T05:16:22.181Z,656.00
2023-02-02T05:17:22.159Z,656.00
2023-02-02T05:18:22.226Z,656.00
2023-02-02T05:19:22.227Z,652.00
2023-02-02T05:20:22.266Z,651.00
2023-02-02T05:21:22.311Z,651.00
2023-02-02T05:22:22.335Z,652.00
2023-02-02T05:23:22.375Z,654.00
2023-02-02T05:24:22.404Z,652.00
2023-02-02T05:25:22.787Z,652.00
2023-02-02T05:26:22.511Z,649.00
2023-02-02T05:27:22.506Z,651.00
2023-02-02T05:28:22.588Z,653.00
2023-02-02T05:29:22.599Z,653.00
2023-02-02T05:30:22.647Z,654.00
2023-02-02T05:31:22.744Z,652.00
2023-02-02T05:32:22.735Z,651.00
2023-02-02T05:33:22.840Z,649.00
2023-02-02T05:34:22.839Z,649.00
2023-02-02T05:35:23.335Z,646.00
2023-02-02T05:36:22.949Z,644.00
2023-02-02T05:37:22.970Z,643.00
2023-02-02T05:38:22.973Z,643.00
2023-02-02T05:39:23.084Z,644.00
2023-02-02T05:40:23.062Z,646.00
2023-02-02T05:41:23.090Z,646.00
2023-02-02T05:42:23.136Z,646.00
2023-02-02T05:43:23.202Z,646.00
2023-02-02T05:44:23.233Z,649.00
2023-02-02T05:47:23.378Z,650.00
2023-02-02T05:48:23.409Z,647.00
2023-02-02T05:49:23.440Z,645.00
2023-02-02T05:50:23.502Z,645.00
2023-02-02T05:51:23.541Z,645.00
2023-02-02T05:52:23.565Z,645.00
2023-02-02T05:53:23.617Z,645.00
2023-02-02T05:54:23.654Z,644.00
2023-02-02T05:55:24.152Z,641.00
2023-02-02T05:56:23.798Z,641.00
2023-02-02T05:57:23.828Z,642.00
2023-02-02T05:58:23.885Z,642.00
2023-02-02T05:59:23.891Z,643.00
2023-02-02T06:00:31.725Z,644.00
2023-02-02T06:01:23.968Z,647.00
2023-02-02T06:02:24.055Z,648.00
2023-02-02T06:03:24.038Z,649.00
2023-02-02T06:04:23.950Z,647.00
2023-02-02T06:05:24.272Z,646.00
2023-02-02T06:06:23.927Z,647.00
2023-02-02T06:07:23.891Z,646.00
2023-02-02T06:08:23.935Z,645.00
2023-02-02T06:09:23.953Z,644.00
2023-02-02T06:10:23.904Z,645.00
2023-02-02T06:11:23.914Z,645.00
2023-02-02T06:12:23.917Z,644.00
2023-02-02T06:13:23.943Z,645.00
2023-02-02T06:14:23.971Z,644.00
2023-02-02T06:15:24.348Z,644.00
2023-02-02T06:16:24.104Z,645.00
2023-02-02T06:17:24.120Z,646.00
2023-02-02T06:18:24.171Z,647.00
2023-02-02T06:20:24.208Z,646.00
2023-02-02T06:21:24.179Z,646.00
2023-02-02T06:22:24.187Z,644.00
2023-02-02T06:23:24.199Z,644.00
2023-02-02T06:24:24.197Z,639.00
2023-02-02T06:25:24.600Z,640.00
2023-02-02T06:26:24.250Z,640.00
2023-02-02T06:27:24.147Z,638.00
2023-02-02T06:28:24.239Z,636.00
2023-02-02T06:29:24.127Z,635.00
2023-02-02T06:30:24.087Z,636.00
2023-02-02T06:31:24.219Z,635.00
2023-02-02T06:32:24.154Z,636.00
2023-02-02T06:33:24.147Z,637.00
2023-02-02T06:34:24.104Z,639.00
2023-02-02T06:35:24.419Z,642.00
2023-02-02T06:36:24.120Z,719.00
2023-02-02T06:37:24.100Z,751.00
2023-02-02T06:38:24.176Z,771.00
2023-02-02T06:39:24.110Z,767.00
2023-02-02T06:40:24.076Z,750.00
2023-02-02T06:41:24.070Z,748.00
2023-02-02T06:42:24.043Z,732.00
2023-02-02T06:43:24.185Z,739.00
2023-02-02T06:44:24.079Z,743.00
2023-02-02T06:45:31.081Z,751.00
2023-02-02T06:46:24.071Z,749.00
2023-02-02T06:47:26.550Z,890.00
2023-02-02T06:48:24.032Z,780.00
2023-02-02T06:49:24.000Z,783.00
2023-02-02T06:50:24.024Z,809.00
2023-02-02T06:51:24.011Z,821.00
2023-02-02T06:52:23.966Z,849.00
2023-02-02T06:53:24.215Z,886.00
2023-02-02T06:54:23.977Z,920.00
2023-02-02T06:55:24.325Z,941.00
2023-02-02T06:56:23.968Z,936.00
2023-02-02T06:57:23.983Z,954.00
2023-02-02T06:58:24.047Z,968.00
2023-02-02T06:59:23.948Z,978.00
2023-02-02T07:00:23.959Z,985.00
2023-02-02T07:01:24.041Z,1023.00
2023-02-02T07:02:24.016Z,1014.00
2023-02-02T07:03:23.915Z,1016.00
2023-02-02T07:04:23.924Z,1029.00
2023-02-02T07:05:24.282Z,1059.00
2023-02-02T07:06:23.942Z,1069.00
2023-02-02T07:07:23.899Z,1079.00
2023-02-02T07:08:23.894Z,1084.00
2023-02-02T07:09:23.934Z,1073.00
2023-02-02T07:11:13.794Z,1074.00
2023-02-02T07:11:24.864Z,1109.00
2023-02-02T07:12:23.969Z,1122.00
2023-02-02T07:13:23.937Z,1136.00
2023-02-02T07:14:24.310Z,1138.00
2023-02-02T07:15:24.325Z,1145.00
2023-02-02T07:16:23.913Z,1151.00
2023-02-02T07:17:23.913Z,1154.00
2023-02-02T07:18:23.926Z,1158.00
2023-02-02T07:19:23.934Z,1161.00
2023-02-02T07:20:23.795Z,1157.00
2023-02-02T07:21:23.841Z,1159.00
2023-02-02T07:22:23.848Z,1162.00
2023-02-02T07:23:23.793Z,1166.00
2023-02-02T07:24:23.803Z,1106.00
2023-02-02T07:25:24.151Z,975.00
2023-02-02T07:26:23.870Z,933.00
2023-02-02T07:27:23.872Z,912.00
2023-02-02T07:28:23.906Z,895.00
2023-02-02T07:29:24.256Z,880.00
2023-02-02T07:30:23.924Z,880.00
2023-02-02T07:31:23.951Z,830.00
2023-02-02T07:32:23.968Z,817.00
2023-02-02T07:33:23.974Z,813.00
2023-02-02T07:34:23.981Z,819.00
2023-02-02T07:35:24.241Z,920.00
2023-02-02T07:36:24.107Z,963.00
2023-02-02T07:37:23.998Z,1010.00
2023-02-02T07:38:24.001Z,993.00
2023-02-02T07:39:24.243Z,1063.00
2023-02-02T07:40:24.061Z,1059.00
2023-02-02T07:41:24.116Z,1043.00
2023-02-02T07:42:24.212Z,1028.00
2023-02-02T07:43:24.228Z,1053.00
2023-02-02T07:45:27.259Z,1099.00
2023-02-02T07:46:24.374Z,1103.00
2023-02-02T07:47:24.313Z,1176.00
2023-02-02T07:48:24.317Z,1118.00
2023-02-02T07:49:24.394Z,1129.00
2023-02-02T07:50:24.313Z,1126.00
2023-02-02T07:51:24.351Z,1128.00
2023-02-02T07:52:24.322Z,1125.00
2023-02-02T07:53:24.325Z,1124.00
2023-02-02T07:54:24.283Z,1125.00
2023-02-02T07:55:24.281Z,1125.00
2023-02-02T07:56:24.280Z,1103.00
2023-02-02T07:57:24.316Z,1144.00
2023-02-02T07:58:24.259Z,1074.00
2023-02-02T07:59:24.298Z,1059.00
2023-02-02T08:00:24.817Z,1134.00
2023-02-02T08:01:24.281Z,1140.00
2023-02-02T08:02:24.217Z,1153.00
2023-02-02T08:03:24.234Z,1152.00
2023-02-02T08:04:24.229Z,1142.00
2023-02-02T08:05:24.534Z,1127.00
2023-02-02T08:06:24.218Z,1115.00
2023-02-02T08:07:24.202Z,1121.00
2023-02-02T08:08:24.185Z,1125.00
2023-02-02T08:09:24.211Z,1145.00
2023-02-02T08:10:24.264Z,1156.00
2023-02-02T08:11:24.201Z,1166.00
2023-02-02T08:12:25.482Z,1166.00
2023-02-02T08:13:24.189Z,1169.00
2023-02-02T08:14:24.196Z,1149.00
2023-02-02T08:15:24.534Z,1132.00
2023-02-02T08:16:24.181Z,1131.00
2023-02-02T08:17:24.142Z,1148.00
2023-02-02T08:18:24.160Z,1162.00
2023-02-02T08:19:24.161Z,1174.00
2023-02-02T08:20:24.142Z,1171.00
2023-02-02T08:21:24.141Z,1166.00
2023-02-02T08:22:24.157Z,1161.00
2023-02-02T08:23:24.119Z,1170.00
2023-02-02T08:24:24.099Z,1155.00
2023-02-02T08:25:24.523Z,1146.00
2023-02-02T08:26:24.153Z,1154.00
2023-02-02T08:27:24.087Z,1156.00
2023-02-02T08:28:24.076Z,1096.00
2023-02-02T08:29:24.092Z,1112.00
2023-02-02T08:30:24.162Z,1130.00
2023-02-02T08:31:24.160Z,1124.00
2023-02-02T08:32:24.045Z,1131.00
2023-02-02T08:33:24.055Z,1179.00
2023-02-02T08:34:24.037Z,1154.00
2023-02-02T08:35:24.570Z,1157.00
2023-02-02T08:36:24.035Z,1168.00
2023-02-02T08:37:24.043Z,1177.00
2023-02-02T08:38:24.015Z,1229.00
2023-02-02T08:39:24.086Z,1222.00
2023-02-02T08:40:24.473Z,1228.00
2023-02-02T08:41:24.015Z,1253.00
2023-02-02T08:42:23.981Z,1265.00
2023-02-02T08:43:23.994Z,1275.00
2023-02-02T08:44:23.963Z,1281.00
2023-02-02T08:46:02.800Z,1274.00
2023-02-02T08:46:25.048Z,1273.00
2023-02-02T08:47:24.008Z,1280.00
2023-02-02T08:48:24.011Z,1301.00
2023-02-02T08:49:23.986Z,1351.00
2023-02-02T08:51:23.957Z,1368.00
2023-02-02T08:52:25.778Z,1385.00
2023-02-02T08:53:23.975Z,1429.00
2023-02-02T08:54:24.009Z,1434.00
2023-02-02T08:55:24.542Z,1430.00
2023-02-02T08:56:23.970Z,1426.00
2023-02-02T08:57:23.983Z,1425.00
2023-02-02T08:58:23.904Z,1432.00
2023-02-02T08:59:23.926Z,1430.00
2023-02-02T09:00:24.298Z,1369.00
2023-02-02T09:01:23.986Z,1382.00
2023-02-02T09:02:23.911Z,1386.00
2023-02-02T09:17:24.004Z,1328.00
2023-02-02T09:18:23.988Z,1324.00
2023-02-02T09:19:24.028Z,1320.00
2023-02-02T09:20:24.045Z,1320.00
2023-02-02T09:22:24.045Z,1322.00
2023-02-02T09:23:24.053Z,1322.00
2023-02-02T09:24:24.053Z,1319.00
2023-02-02T09:25:24.388Z,1321.00
2023-02-02T09:26:24.078Z,1314.00
2023-02-02T09:27:24.046Z,1304.00
2023-02-02T09:28:24.077Z,1303.00
2023-02-02T09:29:24.086Z,1317.00
2023-02-02T09:30:24.196Z,1294.00
2023-02-02T09:31:24.366Z,1215.00
2023-02-02T09:32:24.120Z,1194.00
2023-02-02T09:33:24.182Z,1190.00
2023-02-02T09:34:24.236Z,1178.00
2023-02-02T09:35:24.550Z,1092.00
2023-02-02T09:36:24.328Z,1082.00
2023-02-02T09:37:24.295Z,1078.00
2023-02-02T09:38:24.365Z,1059.00
2023-02-02T09:39:24.372Z,1052.00
2023-02-02T09:40:24.394Z,1031.00
2023-02-02T09:41:24.896Z,996.00
2023-02-02T09:42:24.490Z,982.00
2023-02-02T09:43:24.527Z,972.00
2023-02-02T09:44:24.605Z,965.00
2023-02-02T09:45:24.871Z,944.00
2023-02-02T09:46:25.921Z,938.00
2023-02-02T09:47:24.714Z,921.00
2023-02-02T09:48:24.762Z,914.00
2023-02-02T09:49:24.852Z,904.00
2023-02-02T09:50:24.891Z,891.00
2023-02-02T09:51:24.967Z,882.00
2023-02-02T09:52:25.001Z,873.00
2023-02-02T09:53:25.069Z,868.00
2023-02-02T09:56:25.296Z,961.00
2023-02-02T09:58:25.209Z,793.00
2023-02-02T09:59:25.271Z,818.00
2023-02-02T10:00:25.335Z,791.00
2023-02-02T10:01:25.408Z,766.00
2023-02-02T10:02:25.374Z,767.00
2023-02-02T10:04:25.466Z,746.00
2023-02-02T10:05:25.720Z,744.00
2023-02-02T10:07:25.550Z,716.00
2023-02-02T10:11:25.709Z,695.00
2023-02-02T10:12:25.718Z,676.00
2023-02-02T10:13:25.728Z,654.00
2023-02-02T10:14:25.791Z,661.00
2023-02-02T10:15:26.126Z,675.00
2023-02-02T10:16:25.888Z,678.00
2023-02-02T10:17:25.730Z,676.00
2023-02-02T10:18:25.711Z,695.00
2023-02-02T10:19:25.703Z,711.00
2023-02-02T10:20:26.165Z,716.00
2023-02-02T10:21:25.816Z,722.00
2023-02-02T10:22:25.876Z,728.00
2023-02-02T10:23:25.897Z,727.00
2023-02-02T10:24:25.982Z,715.00
2023-02-02T10:25:26.028Z,718.00
2023-02-02T10:27:26.015Z,792.00
2023-02-02T10:28:26.011Z,787.00
2023-02-02T10:29:26.025Z,781.00
2023-02-02T10:30:26.274Z,775.00
2023-02-02T10:31:26.446Z,771.00
2023-02-02T10:32:26.146Z,769.00
2023-02-02T10:33:26.157Z,769.00
2023-02-02T10:34:26.219Z,779.00
2023-02-02T10:35:26.295Z,780.00
2023-02-02T10:36:26.317Z,782.00
2023-02-02T10:37:26.333Z,790.00
2023-02-02T10:38:26.450Z,798.00
2023-02-02T10:39:26.451Z,841.00
2023-02-02T10:40:26.935Z,846.00
2023-02-02T10:41:26.572Z,858.00
2023-02-02T10:42:26.576Z,999.00
2023-02-02T10:43:26.631Z,987.00
2023-02-02T10:44:26.624Z,1033.00
2023-02-02T10:45:26.710Z,1070.00
2023-02-02T10:46:26.943Z,1087.00
2023-02-02T10:47:26.771Z,1087.00
2023-02-02T10:48:26.856Z,1069.00
2023-02-02T10:49:26.876Z,1122.00
2023-02-02T10:50:27.310Z,1124.00
2023-02-02T10:52:27.039Z,1128.00
2023-02-02T10:53:27.059Z,1134.00
2023-02-02T10:58:27.243Z,959.00
2023-02-02T10:59:27.310Z,960.00
2023-02-02T11:00:27.744Z,967.00
2023-02-02T11:01:27.872Z,960.00
2023-02-02T11:02:27.383Z,865.00
2023-02-02T11:03:27.430Z,875.00
2023-02-02T11:04:27.528Z,857.00
2023-02-02T11:05:27.583Z,845.00
2023-02-02T11:06:27.820Z,864.00
2023-02-02T11:07:27.717Z,892.00
2023-02-02T11:08:27.782Z,900.00
2023-02-02T11:09:27.784Z,902.00
2023-02-02T11:10:28.138Z,890.00
2023-02-02T11:11:27.945Z,862.00
2023-02-02T11:12:27.945Z,1086.00
2023-02-02T11:13:28.028Z,985.00
2023-02-02T11:14:28.067Z,963.00
2023-02-02T11:15:28.111Z,961.00
2023-02-02T11:16:35.505Z,953.00
2023-02-02T11:18:28.124Z,945.00
2023-02-02T11:19:28.096Z,1002.00
2023-02-02T11:20:28.099Z,998.00
2023-02-02T11:21:28.119Z,923.00
2023-02-02T11:22:28.156Z,944.00
2023-02-02T11:23:28.084Z,934.00
2023-02-02T11:24:28.100Z,925.00
2023-02-02T11:25:28.084Z,920.00
2023-02-02T11:26:28.379Z,931.00
2023-02-02T11:27:28.067Z,955.00
2023-02-02T11:28:28.053Z,995.00
2023-02-02T11:29:28.072Z,1007.00
2023-02-02T11:30:28.012Z,996.00
2023-02-02T11:31:28.438Z,1003.00
2023-02-02T11:32:28.033Z,1087.00
2023-02-02T11:33:28.054Z,1015.00
2023-02-02T11:34:28.079Z,879.00
2023-02-02T11:35:28.108Z,848.00
2023-02-02T11:36:28.359Z,951.00
2023-02-02T11:38:28.148Z,1044.00
2023-02-02T11:39:28.241Z,1052.00
2023-02-02T11:40:28.700Z,1082.00
2023-02-02T11:42:28.509Z,1191.00
2023-02-02T11:43:28.367Z,1206.00
2023-02-02T11:44:28.399Z,1219.00
2023-02-02T11:45:28.444Z,1228.00
2023-02-02T11:46:28.507Z,1243.00
2023-02-02T11:47:28.856Z,1256.00
2023-02-02T11:48:28.530Z,1289.00
2023-02-02T11:49:28.500Z,1302.00
2023-02-02T11:50:28.503Z,1318.00
2023-02-02T11:51:28.528Z,1343.00
2023-02-02T11:52:30.622Z,1336.00
2023-02-02T11:53:28.490Z,1340.00
2023-02-02T11:54:28.545Z,1330.00
2023-02-02T11:55:28.479Z,1338.00
2023-02-02T11:56:28.483Z,1352.00
2023-02-02T11:57:28.477Z,1363.00
2023-02-02T11:58:28.479Z,1372.00
2023-02-02T11:59:28.475Z,1384.00
2023-02-02T12:00:28.471Z,1398.00
2023-02-02T12:01:28.468Z,1424.00
2023-02-02T12:02:28.867Z,1452.00
2023-02-02T12:03:28.463Z,1468.00
2023-02-02T12:04:28.880Z,1492.00
2023-02-02T12:05:28.407Z,1494.00
2023-02-02T12:06:28.420Z,1504.00
2023-02-02T12:07:28.416Z,1523.00
2023-02-02T12:08:28.428Z,1545.00
2023-02-02T12:09:28.406Z,1558.00
2023-02-02T12:10:30.054Z,1588.00
2023-02-02T12:11:28.409Z,1597.00
2023-02-02T12:12:28.418Z,1597.00
2023-02-02T12:13:28.440Z,1601.00
2023-02-02T12:14:28.380Z,1609.00
2023-02-02T12:15:28.387Z,1616.00
2023-02-02T12:16:28.457Z,1629.00
2023-02-02T12:17:28.391Z,1643.00
2023-02-02T12:18:28.348Z,1666.00
2023-02-02T12:19:28.332Z,1682.00
2023-02-02T12:20:28.650Z,1695.00
2023-02-02T12:21:28.345Z,1704.00
2023-02-02T12:22:28.338Z,1755.00
2023-02-02T12:23:28.324Z,1750.00
2023-02-02T12:24:28.300Z,1778.00
2023-02-02T12:25:28.383Z,1783.00
2023-02-02T12:26:28.424Z,1815.00
2023-02-02T12:27:28.356Z,1804.00
2023-02-02T12:28:28.391Z,1795.00
2023-02-02T12:29:28.295Z,1775.00
2023-02-02T12:30:28.445Z,1741.00
2023-02-02T12:31:28.293Z,1731.00
2023-02-02T12:32:28.349Z,1725.00
2023-02-02T12:33:28.262Z,1726.00
2023-02-02T12:34:28.260Z,1720.00
2023-02-02T12:35:28.301Z,1716.00
2023-02-02T12:36:28.246Z,1711.00
2023-02-02T12:37:28.336Z,1705.00
2023-02-02T12:38:28.235Z,1702.00
2023-02-02T12:39:28.304Z,1695.00
2023-02-02T12:40:28.525Z,1690.00
2023-02-02T12:41:28.256Z,1682.00
2023-02-02T12:42:28.268Z,1673.00
2023-02-02T12:43:28.261Z,1666.00
2023-02-02T12:44:28.227Z,1660.00
2023-02-02T12:45:28.265Z,1656.00
2023-02-02T12:46:28.184Z,1648.00
2023-02-02T12:47:28.191Z,1643.00
2023-02-02T12:48:28.242Z,1635.00
2023-02-02T12:49:28.218Z,1632.00
2023-02-02T12:50:28.477Z,1630.00
2023-02-02T12:51:28.169Z,1625.00
2023-02-02T12:52:28.150Z,1618.00
2023-02-02T12:53:28.264Z,1613.00
2023-02-02T12:54:32.772Z,1604.00
2023-02-02T12:55:29.161Z,1595.00
2023-02-02T12:56:28.147Z,1589.00
2023-02-02T12:57:28.157Z,1586.00
2023-02-02T12:58:28.118Z,1578.00
2023-02-02T12:59:28.121Z,1576.00
2023-02-02T13:00:28.320Z,1571.00
2023-02-02T13:01:28.105Z,1566.00
2023-02-02T13:02:28.097Z,1565.00
2023-02-02T13:03:28.081Z,1562.00
2023-02-02T13:04:28.092Z,1555.00
2023-02-02T13:05:28.107Z,1554.00
2023-02-02T13:06:28.144Z,1547.00
2023-02-02T13:07:28.224Z,1538.00
2023-02-02T13:08:28.264Z,1528.00
2023-02-02T13:09:28.337Z,1519.00
2023-02-02T13:10:28.571Z,1513.00
2023-02-02T13:11:28.450Z,1509.00
2023-02-02T13:12:28.513Z,1507.00
2023-02-02T13:13:28.527Z,1504.00
2023-02-02T13:14:28.579Z,1500.00
2023-02-02T13:15:28.633Z,1495.00
2023-02-02T13:16:28.730Z,1488.00